Time;durP1;ratioP1;P1;durP2;ratioP2;P2;SDS_P1;SDS_P2;PMS_P1;PMS_P2;Temp;Humidity;BMP_temperature;BMP_pressure;BME280_temperature;BME280_humidity;BME280_pressure;Samples;Min_cycle;Max_cycle;Signal;HPM_P1;HPM_P2
2022/04/11 00:02:03;;;;;;;12.98;7.72;;;7.40;43.10;;;;;;5068542;28;25134;-74
2022/04/11 00:04:29;;;;;;;12.20;8.23;;;7.50;42.90;;;;;;5068058;28;25068;-74
2022/04/11 00:06:55;;;;;;;16.90;8.60;;;7.50;42.60;;;;;;5068698;28;25060;-74
2022/04/11 00:09:20;;;;;;;14.77;8.82;;;7.50;42.00;;;;;;5068510;28;25086;-74
2022/04/11 00:11:49;;;;;;;15.07;8.27;;;7.50;41.40;;;;;;5067520;28;25091;-74
2022/04/11 00:14:14;;;;;;;16.38;8.43;;;7.50;41.00;;;;;;5074395;28;25072;-74
2022/04/11 00:16:40;;;;;;;12.65;8.32;;;7.50;40.40;;;;;;5075321;28;25060;-74
2022/04/11 00:19:08;;;;;;;15.45;8.27;;;7.50;40.80;;;;;;5071321;28;25154;-74
2022/04/11 00:21:34;;;;;;;11.77;8.27;;;7.50;40.30;;;;;;5069832;28;25062;-74
2022/04/11 00:23:59;;;;;;;13.02;7.82;;;7.50;39.10;;;;;;5068489;28;25098;-73
2022/04/11 00:26:25;;;;;;;14.65;7.50;;;7.50;38.20;;;;;;5051450;28;25057;-73
2022/04/11 00:28:51;;;;;;;14.43;7.63;;;7.40;37.80;;;;;;5073944;28;25066;-72
2022/04/11 00:31:17;;;;;;;14.68;8.55;;;7.30;38.40;;;;;;5067081;28;25128;-73
2022/04/11 00:33:42;;;;;;;13.90;7.90;;;7.30;38.70;;;;;;5066995;28;25055;-73
2022/04/11 00:36:08;;;;;;;12.75;7.72;;;7.30;38.30;;;;;;5079854;28;25065;-72
2022/04/11 00:38:33;;;;;;;12.88;8.45;;;7.30;38.20;;;;;;5086862;28;25066;-73
2022/04/11 00:40:59;;;;;;;10.75;7.85;;;7.20;38.50;;;;;;5059386;28;25140;-73
2022/04/11 00:43:35;;;;;;;13.02;8.25;;;7.20;38.70;;;;;;5057990;28;25093;-72
2022/04/11 00:46:02;;;;;;;14.95;8.82;;;7.20;38.80;;;;;;5074518;28;25142;-73
2022/04/11 00:48:27;;;;;;;14.00;8.70;;;7.20;38.80;;;;;;5075854;28;25057;-74
2022/04/11 00:51:01;;;;;;;13.02;8.65;;;7.20;39.60;;;;;;5083046;28;25072;-73
2022/04/11 00:53:28;;;;;;;16.65;9.00;;;7.10;39.60;;;;;;5070521;28;25056;-73
2022/04/11 00:55:56;;;;;;;19.73;8.93;;;7.10;40.50;;;;;;5089566;28;25125;-73
2022/04/11 00:58:22;;;;;;;14.43;8.73;;;7.10;40.40;;;;;;5038950;28;25088;-74
2022/04/11 01:00:48;;;;;;;14.00;8.48;;;7.10;40.20;;;;;;5049458;28;25094;-74
2022/04/11 01:03:14;;;;;;;17.20;8.50;;;7.10;40.40;;;;;;5078840;28;25163;-73
2022/04/11 01:05:40;;;;;;;17.48;8.70;;;7.00;40.80;;;;;;5089846;28;25067;-75
2022/04/11 01:08:07;;;;;;;14.27;8.07;;;6.90;41.40;;;;;;5089546;28;25072;-73
2022/04/11 01:10:33;;;;;;;12.32;8.93;;;6.90;42.10;;;;;;5082213;28;25093;-75
2022/04/11 01:13:00;;;;;;;13.57;8.00;;;6.90;42.60;;;;;;5068747;28;25163;-75
2022/04/11 01:15:25;;;;;;;20.42;8.98;;;6.90;42.00;;;;;;5055859;28;25060;-74
2022/04/11 01:17:51;;;;;;;13.35;8.95;;;6.90;42.70;;;;;;5049288;28;25160;-73
2022/04/11 01:20:17;;;;;;;12.98;8.70;;;7.00;42.70;;;;;;5079406;28;25096;-73
2022/04/11 01:22:43;;;;;;;11.75;8.48;;;6.90;43.10;;;;;;5091199;28;25139;-74
2022/04/11 01:25:10;;;;;;;12.57;8.32;;;7.00;43.30;;;;;;5101077;28;25070;-73
2022/04/11 01:27:37;;;;;;;13.82;8.95;;;6.90;43.20;;;;;;5103620;28;25075;-75
2022/04/11 01:30:04;;;;;;;13.65;9.05;;;6.90;43.60;;;;;;5091130;28;25137;-75
2022/04/11 01:32:30;;;;;;;14.13;9.10;;;6.90;43.50;;;;;;5084898;28;25060;-74
2022/04/11 01:34:56;;;;;;;15.60;8.52;;;6.80;44.50;;;;;;5069829;28;25054;-74
2022/04/11 01:37:22;;;;;;;12.90;9.23;;;6.90;44.60;;;;;;5058655;28;25051;-72
2022/04/11 01:39:48;;;;;;;18.70;8.80;;;6.90;44.70;;;;;;5075201;28;25094;-73
2022/04/11 01:42:13;;;;;;;15.35;9.65;;;6.90;44.90;;;;;;5063369;28;25065;-74
2022/04/11 01:44:39;;;;;;;15.45;9.20;;;6.80;44.90;;;;;;5080443;28;25090;-74
2022/04/11 01:47:04;;;;;;;12.40;8.18;;;6.80;45.40;;;;;;5070205;28;25072;-73
2022/04/11 01:49:30;;;;;;;13.85;8.93;;;6.90;45.20;;;;;;5068787;28;25142;-73
2022/04/11 01:51:56;;;;;;;11.23;8.23;;;6.80;45.50;;;;;;5068868;28;25142;-75
2022/04/11 01:54:21;;;;;;;13.10;8.55;;;6.70;46.00;;;;;;5082239;28;25067;-74
2022/04/11 01:56:47;;;;;;;14.52;9.20;;;6.80;46.20;;;;;;5084156;28;25071;-74
2022/04/11 01:59:14;;;;;;;16.40;8.98;;;6.70;46.60;;;;;;5068725;28;25068;-74
2022/04/11 02:01:40;;;;;;;13.35;8.57;;;6.80;46.70;;;;;;5053350;28;25157;-74
2022/04/11 02:04:06;;;;;;;13.88;8.40;;;6.70;46.20;;;;;;5050729;28;25103;-74
2022/04/11 02:06:31;;;;;;;11.10;8.70;;;6.60;46.70;;;;;;5060993;28;25102;-74
2022/04/11 02:08:57;;;;;;;11.52;8.60;;;6.60;47.40;;;;;;5067616;28;25101;-75
2022/04/11 02:11:23;;;;;;;12.25;8.68;;;6.50;47.80;;;;;;5050443;28;25111;-75
2022/04/11 02:13:48;;;;;;;11.35;9.00;;;6.60;48.10;;;;;;5068319;28;25076;-74
2022/04/11 02:16:14;;;;;;;13.18;8.77;;;6.50;47.80;;;;;;5070124;28;25076;-72
2022/04/11 02:18:40;;;;;;;14.68;8.90;;;6.40;48.10;;;;;;5069568;28;25086;-73
2022/04/11 02:21:05;;;;;;;13.88;8.70;;;6.40;48.80;;;;;;5069096;28;25074;-73
2022/04/11 02:23:31;;;;;;;14.88;9.57;;;6.40;49.00;;;;;;5068705;28;25063;-73
2022/04/11 02:25:56;;;;;;;16.20;9.52;;;6.40;49.10;;;;;;5069416;28;25079;-74
2022/04/11 02:28:22;;;;;;;13.32;9.18;;;6.50;49.50;;;;;;5050410;28;25061;-74
2022/04/11 02:30:47;;;;;;;11.98;8.93;;;6.50;48.70;;;;;;5068656;28;25079;-74
2022/04/11 02:33:13;;;;;;;15.95;9.05;;;6.50;48.30;;;;;;5056760;28;25099;-75
2022/04/11 02:35:41;;;;;;;15.95;9.93;;;6.50;48.70;;;;;;5051677;28;25065;-73
2022/04/11 02:38:06;;;;;;;11.82;8.85;;;6.40;48.70;;;;;;5050740;28;25139;-75
2022/04/11 02:40:32;;;;;;;16.85;9.27;;;6.30;49.10;;;;;;5050101;28;25058;-72
2022/04/11 02:42:58;;;;;;;16.42;9.90;;;6.30;49.70;;;;;;5061969;28;25078;-73
2022/04/11 02:45:24;;;;;;;13.68;9.80;;;6.30;50.00;;;;;;5049715;28;25065;-73
2022/04/11 02:47:50;;;;;;;19.10;9.70;;;6.20;50.40;;;;;;5050030;28;25077;-74
2022/04/11 02:50:16;;;;;;;20.35;9.85;;;6.30;50.70;;;;;;5065745;28;25062;-74
2022/04/11 02:52:41;;;;;;;11.10;9.50;;;6.20;51.40;;;;;;5047413;28;25144;-74
2022/04/11 02:55:08;;;;;;;14.52;10.05;;;6.10;51.60;;;;;;5064620;28;25057;-74
2022/04/11 02:57:36;;;;;;;14.85;10.57;;;6.20;51.90;;;;;;5058419;28;25018;-73
2022/04/11 03:00:10;;;;;;;14.70;9.15;;;6.10;52.10;;;;;;5070462;28;25079;-73
2022/04/11 03:02:36;;;;;;;13.18;9.75;;;6.10;52.80;;;;;;5088425;28;25059;-73
2022/04/11 03:05:03;;;;;;;15.82;10.40;;;6.00;54.20;;;;;;5083430;28;25091;-73
2022/04/11 03:07:28;;;;;;;13.95;10.30;;;6.00;54.80;;;;;;5069094;28;25057;-73
2022/04/11 03:09:55;;;;;;;15.32;9.98;;;6.00;55.70;;;;;;5069985;28;25117;-73
2022/04/11 03:12:21;;;;;;;14.60;10.40;;;5.90;56.00;;;;;;5068252;28;25077;-74
2022/04/11 03:14:50;;;;;;;11.15;9.63;;;5.90;56.10;;;;;;5039744;28;25123;-73
2022/04/11 03:17:16;;;;;;;14.20;9.73;;;5.80;56.70;;;;;;5062632;28;25083;-73
2022/04/11 03:19:45;;;;;;;14.45;10.45;;;5.80;57.70;;;;;;5067462;28;25138;-72
2022/04/11 03:22:11;;;;;;;15.27;10.27;;;5.70;58.40;;;;;;5052075;28;25052;-74
2022/04/11 03:24:37;;;;;;;13.65;10.05;;;5.60;58.50;;;;;;5049221;28;25112;-74
2022/04/11 03:27:03;;;;;;;15.45;10.18;;;5.70;59.00;;;;;;5066940;28;25004;-75
2022/04/11 03:29:29;;;;;;;15.05;10.40;;;5.80;59.10;;;;;;5067541;28;25065;-74
2022/04/11 03:31:55;;;;;;;15.65;11.35;;;5.80;58.60;;;;;;5048341;28;25146;-74
2022/04/11 03:34:20;;;;;;;17.15;10.38;;;5.70;58.90;;;;;;5030309;28;25076;-73
2022/04/11 03:36:46;;;;;;;17.23;11.13;;;5.70;59.60;;;;;;5048198;28;25062;-73
2022/04/11 03:39:12;;;;;;;12.82;10.50;;;5.60;60.60;;;;;;5049037;28;25054;-73
2022/04/11 03:41:37;;;;;;;16.55;10.70;;;5.60;61.40;;;;;;5051891;28;25116;-74
2022/04/11 03:44:03;;;;;;;20.42;10.70;;;5.60;61.60;;;;;;5067958;28;25113;-73
2022/04/11 03:46:29;;;;;;;18.80;11.93;;;5.70;61.90;;;;;;5073289;28;25137;-73
2022/04/11 03:48:55;;;;;;;17.98;11.80;;;5.60;60.60;;;;;;5081449;28;25477;-73
2022/04/11 03:51:21;;;;;;;13.98;11.23;;;5.60;60.60;;;;;;5071589;28;25122;-74
2022/04/11 03:53:47;;;;;;;20.15;11.60;;;5.50;60.60;;;;;;5071152;28;25107;-73
2022/04/11 03:56:14;;;;;;;16.80;11.38;;;5.50;61.20;;;;;;5079644;28;25094;-75
2022/04/11 03:58:40;;;;;;;19.73;12.07;;;5.50;61.70;;;;;;5078580;28;25039;-77
2022/04/11 04:01:06;;;;;;;20.63;12.32;;;5.50;61.10;;;;;;5095780;28;25095;-75
2022/04/11 04:03:32;;;;;;;17.90;11.50;;;5.50;61.10;;;;;;5073518;28;25074;-74
2022/04/11 04:05:57;;;;;;;15.75;11.32;;;5.50;60.80;;;;;;5080561;28;25133;-75
2022/04/11 04:08:23;;;;;;;15.63;11.93;;;5.50;60.70;;;;;;5068566;28;25057;-74
2022/04/11 04:10:49;;;;;;;15.48;11.13;;;5.40;60.00;;;;;;5068538;28;25150;-74
2022/04/11 04:13:16;;;;;;;15.82;11.27;;;5.40;59.90;;;;;;5068517;28;25072;-73
2022/04/11 04:15:42;;;;;;;18.73;11.50;;;5.40;60.00;;;;;;5066728;28;25051;-74
2022/04/11 04:18:09;;;;;;;19.92;12.13;;;5.40;59.30;;;;;;5049478;28;25065;-74
2022/04/11 04:20:35;;;;;;;17.55;11.48;;;5.40;59.60;;;;;;5067339;28;25089;-73
2022/04/11 04:23:00;;;;;;;14.52;12.02;;;5.30;59.80;;;;;;5067081;28;25135;-74
2022/04/11 04:25:26;;;;;;;16.08;12.40;;;5.30;59.60;;;;;;5063799;28;25150;-74
2022/04/11 04:27:52;;;;;;;15.50;11.27;;;5.30;59.60;;;;;;5053513;28;25070;-74
2022/04/11 04:30:18;;;;;;;23.15;12.63;;;5.40;58.80;;;;;;5072181;28;25117;-75
2022/04/11 04:32:43;;;;;;;16.52;11.38;;;5.30;58.30;;;;;;5053153;28;25135;-74
2022/04/11 04:35:09;;;;;;;18.13;12.05;;;5.40;58.60;;;;;;5052501;28;25086;-75
2022/04/11 04:37:35;;;;;;;17.92;11.88;;;5.30;58.00;;;;;;5078512;28;25074;-75
2022/04/11 04:40:01;;;;;;;15.73;11.57;;;5.20;58.90;;;;;;5061294;28;25070;-75
2022/04/11 04:42:27;;;;;;;15.73;11.95;;;5.20;59.00;;;;;;5054653;28;25092;-74
2022/04/11 04:44:55;;;;;;;20.38;11.95;;;5.20;58.90;;;;;;5061925;28;25098;-73
2022/04/11 04:47:22;;;;;;;15.25;12.13;;;5.20;59.10;;;;;;5067407;28;25067;-74
2022/04/11 04:49:48;;;;;;;15.07;11.88;;;5.20;59.10;;;;;;5072104;28;25069;-74
2022/04/11 04:52:14;;;;;;;18.88;12.27;;;5.10;59.70;;;;;;5072585;28;25133;-76
2022/04/11 04:54:40;;;;;;;16.55;11.85;;;5.10;59.80;;;;;;5037843;28;25068;-74
2022/04/11 04:57:06;;;;;;;17.83;12.32;;;5.10;60.20;;;;;;5031583;28;25069;-75
2022/04/11 04:59:32;;;;;;;17.55;11.60;;;5.10;60.40;;;;;;5060531;28;25056;-73
2022/04/11 05:01:57;;;;;;;18.60;11.35;;;5.10;60.20;;;;;;5061104;28;25070;-74
2022/04/11 05:04:23;;;;;;;13.65;11.07;;;5.10;60.00;;;;;;5046821;28;25079;-74
2022/04/11 05:06:49;;;;;;;16.15;11.80;;;5.10;60.30;;;;;;5069906;28;25087;-74
2022/04/11 05:09:15;;;;;;;15.57;12.20;;;5.10;59.90;;;;;;5072142;28;25072;-73
2022/04/11 05:11:40;;;;;;;14.32;11.43;;;5.20;59.30;;;;;;5057637;28;25082;-73
2022/04/11 05:14:06;;;;;;;14.35;11.38;;;5.10;58.70;;;;;;5071842;28;25098;-72
2022/04/11 05:16:32;;;;;;;15.45;10.73;;;5.10;58.90;;;;;;5054661;28;25065;-73
2022/04/11 05:18:57;;;;;;;15.35;11.77;;;5.10;58.70;;;;;;5073004;28;25062;-74
2022/04/11 05:21:23;;;;;;;16.90;11.18;;;5.10;58.80;;;;;;5054334;28;25072;-74
2022/04/11 05:23:49;;;;;;;17.10;11.68;;;5.10;58.70;;;;;;5054094;28;25055;-73
2022/04/11 05:26:14;;;;;;;17.25;12.10;;;5.20;58.50;;;;;;5072514;28;25073;-72
2022/04/11 05:28:40;;;;;;;16.48;12.02;;;5.20;58.70;;;;;;5050789;28;25056;-75
2022/04/11 05:31:05;;;;;;;20.77;11.90;;;5.30;58.60;;;;;;5063436;28;25123;-73
2022/04/11 05:33:31;;;;;;;14.85;11.27;;;5.30;57.50;;;;;;5070255;28;25058;-74
2022/04/11 05:35:57;;;;;;;17.88;11.68;;;5.30;56.60;;;;;;5073747;28;25154;-73
2022/04/11 05:38:24;;;;;;;15.40;12.23;;;5.30;56.90;;;;;;5072131;28;25101;-73
2022/04/11 05:40:49;;;;;;;16.65;11.90;;;5.40;57.30;;;;;;5054769;28;25157;-73
2022/04/11 05:43:15;;;;;;;15.23;10.95;;;5.40;56.90;;;;;;5054683;28;25121;-74
2022/04/11 05:45:42;;;;;;;14.77;10.75;;;5.50;56.60;;;;;;5073114;28;25137;-73
2022/04/11 05:48:08;;;;;;;14.40;11.55;;;5.50;56.60;;;;;;5072569;28;25086;-73
2022/04/11 05:50:33;;;;;;;16.88;11.93;;;5.60;55.70;;;;;;5059852;28;25070;-74
2022/04/11 05:53:00;;;;;;;15.35;11.45;;;5.60;55.30;;;;;;5049162;28;25093;-75
2022/04/11 05:55:26;;;;;;;12.98;10.00;;;5.60;55.00;;;;;;5050539;28;25075;-72
2022/04/11 05:57:53;;;;;;;16.83;11.50;;;5.60;55.20;;;;;;5058206;28;25180;-73
2022/04/11 06:00:19;;;;;;;20.23;11.70;;;5.60;55.90;;;;;;5061669;28;25138;-75
2022/04/11 06:02:46;;;;;;;15.43;11.38;;;5.70;56.30;;;;;;5054616;28;25086;-73
2022/04/11 06:05:11;;;;;;;16.02;10.18;;;5.70;56.60;;;;;;5065434;28;25056;-73
2022/04/11 06:07:37;;;;;;;14.48;11.32;;;5.70;56.60;;;;;;5048621;28;25064;-73
2022/04/11 06:10:05;;;;;;;17.88;11.77;;;5.90;56.10;;;;;;5063445;28;25138;-74
2022/04/11 06:12:30;;;;;;;16.40;11.23;;;6.00;55.80;;;;;;5061828;28;25088;-75
2022/04/11 06:14:56;;;;;;;15.60;11.48;;;6.10;55.20;;;;;;5052836;28;25111;-73
2022/04/11 06:17:25;;;;;;;21.10;11.23;;;6.10;55.00;;;;;;5066808;28;25072;-74
2022/04/11 06:19:55;;;;;;;16.17;11.05;;;6.20;54.60;;;;;;5061017;28;25388;-73
2022/04/11 06:22:21;;;;;;;18.48;10.98;;;6.20;55.10;;;;;;5035090;28;25074;-73
2022/04/11 06:24:48;;;;;;;18.58;11.18;;;6.30;55.00;;;;;;5045493;28;25077;-73
2022/04/11 06:27:15;;;;;;;16.33;11.18;;;6.30;53.40;;;;;;5042748;28;25086;-75
2022/04/11 06:29:41;;;;;;;13.35;10.70;;;6.40;53.20;;;;;;5047308;28;25061;-73
2022/04/11 06:32:08;;;;;;;16.42;10.65;;;6.50;53.40;;;;;;5054034;28;25102;-69
2022/04/11 06:34:34;;;;;;;15.35;10.77;;;6.60;52.60;;;;;;5032052;28;25102;-73
2022/04/11 06:37:00;;;;;;;15.18;10.77;;;6.70;52.00;;;;;;5051476;28;25086;-73
2022/04/11 06:39:26;;;;;;;20.05;11.18;;;6.80;51.80;;;;;;5051921;28;25140;-76
2022/04/11 06:41:52;;;;;;;15.05;10.18;;;6.90;51.80;;;;;;5056286;28;25070;-74
2022/04/11 06:44:17;;;;;;;17.85;10.18;;;7.00;51.40;;;;;;5053432;28;25061;-74
2022/04/11 06:46:43;;;;;;;17.38;10.38;;;7.10;51.00;;;;;;5053778;28;25063;-75
2022/04/11 06:49:09;;;;;;;18.65;11.00;;;7.20;50.90;;;;;;5054480;28;25157;-73
2022/04/11 06:51:34;;;;;;;14.38;10.05;;;7.30;50.50;;;;;;5053444;28;25078;-75
2022/04/11 06:54:00;;;;;;;12.88;9.60;;;7.50;49.50;;;;;;5071003;28;25061;-74
2022/04/11 06:56:25;;;;;;;17.77;10.02;;;7.60;49.90;;;;;;5071578;28;25112;-74
2022/04/11 06:58:51;;;;;;;16.52;10.07;;;7.70;48.20;;;;;;5069026;28;25109;-75
2022/04/11 07:01:17;;;;;;;12.77;9.05;;;7.80;46.40;;;;;;5048848;28;25156;-74
2022/04/11 07:03:42;;;;;;;15.80;9.77;;;7.90;46.00;;;;;;5037714;28;25069;-75
2022/04/11 07:06:09;;;;;;;15.02;10.15;;;8.00;45.70;;;;;;5072930;28;25083;-73
2022/04/11 07:08:37;;;;;;;15.68;9.98;;;8.00;45.70;;;;;;5072430;28;25108;-72
2022/04/11 07:11:04;;;;;;;15.63;9.88;;;8.00;45.80;;;;;;5047148;28;25090;-73
2022/04/11 07:13:30;;;;;;;13.25;9.43;;;8.20;45.40;;;;;;5060583;28;25047;-74
2022/04/11 07:15:56;;;;;;;16.50;9.52;;;8.30;44.80;;;;;;5089942;28;25050;-73
2022/04/11 07:18:25;;;;;;;15.40;10.15;;;8.30;43.90;;;;;;5090207;28;25121;-72
2022/04/11 07:20:51;;;;;;;16.35;9.57;;;8.40;44.10;;;;;;5073388;28;25058;-73
2022/04/11 07:23:17;;;;;;;14.43;8.15;;;8.50;43.80;;;;;;5059465;28;25142;-73
2022/04/11 07:25:43;;;;;;;9.35;7.88;;;8.70;41.80;;;;;;5058399;28;25088;-73
2022/04/11 07:28:08;;;;;;;14.70;8.77;;;8.70;40.50;;;;;;5056558;28;25092;-72
2022/04/11 07:30:34;;;;;;;17.95;8.40;;;8.90;40.40;;;;;;5054576;28;25056;-73
2022/04/11 07:33:00;;;;;;;11.82;7.70;;;9.10;38.90;;;;;;5054015;28;25148;-73
2022/04/11 07:35:26;;;;;;;14.77;8.05;;;9.40;37.70;;;;;;5055835;28;25061;-74
2022/04/11 07:37:51;;;;;;;11.75;8.15;;;9.50;36.00;;;;;;5070581;28;25075;-73
2022/04/11 07:40:17;;;;;;;15.20;8.05;;;9.70;35.60;;;;;;5066119;28;25058;-73
2022/04/11 07:42:43;;;;;;;10.73;7.78;;;9.80;34.70;;;;;;5052102;28;25075;-71
2022/04/11 07:45:09;;;;;;;11.50;7.90;;;9.80;35.60;;;;;;5052463;28;25122;-73
2022/04/11 07:47:34;;;;;;;10.13;6.70;;;9.80;35.80;;;;;;5070137;28;25074;-72
2022/04/11 07:50:00;;;;;;;9.15;7.18;;;9.90;32.80;;;;;;5057201;28;25144;-72
2022/04/11 07:52:26;;;;;;;19.77;7.70;;;10.10;34.00;;;;;;5052301;28;25068;-73
2022/04/11 07:54:53;;;;;;;13.82;6.28;;;10.30;33.80;;;;;;5069384;28;25065;-73
2022/04/11 07:57:19;;;;;;;13.02;5.85;;;10.50;30.60;;;;;;5069935;28;25048;-73
2022/04/11 07:59:44;;;;;;;10.52;5.47;;;10.70;27.80;;;;;;5070124;28;25053;-73
2022/04/11 08:02:10;;;;;;;9.15;5.90;;;10.80;26.60;;;;;;5068382;28;25064;-73
2022/04/11 08:04:35;;;;;;;11.15;5.25;;;10.80;25.20;;;;;;5057557;28;25471;-72
2022/04/11 08:07:02;;;;;;;7.43;5.68;;;11.00;24.60;;;;;;5048492;28;25088;-70
2022/04/11 08:09:28;;;;;;;8.80;5.18;;;11.20;22.80;;;;;;5032631;28;25072;-74
2022/04/11 08:11:54;;;;;;;9.85;6.07;;;11.10;23.80;;;;;;5050610;28;25075;-74
2022/04/11 08:14:20;;;;;;;11.80;5.68;;;11.30;23.20;;;;;;5049963;28;25056;-73
2022/04/11 08:16:46;;;;;;;7.72;6.25;;;11.30;21.80;;;;;;5061519;28;25101;-73
2022/04/11 08:19:12;;;;;;;12.63;6.00;;;11.50;23.50;;;;;;5069885;28;25061;-72
2022/04/11 08:21:37;;;;;;;10.52;6.03;;;11.60;20.70;;;;;;5069964;28;25155;-72
2022/04/11 08:24:03;;;;;;;8.93;6.25;;;11.70;20.80;;;;;;5070259;28;25056;-73
2022/04/11 08:26:29;;;;;;;11.27;6.50;;;11.60;22.00;;;;;;5069792;28;25045;-73
2022/04/11 08:28:55;;;;;;;9.43;5.95;;;11.80;21.70;;;;;;5070713;28;25091;-73
2022/04/11 08:31:20;;;;;;;10.57;4.55;;;12.10;20.80;;;;;;5070343;28;25114;-73
2022/04/11 08:33:46;;;;;;;10.88;5.75;;;12.10;17.00;;;;;;5062936;28;25088;-74
2022/04/11 08:36:12;;;;;;;8.90;5.70;;;12.30;18.10;;;;;;5063826;28;25067;-73
2022/04/11 08:38:37;;;;;;;8.13;5.00;;;12.70;17.20;;;;;;5052359;28;25086;-73
2022/04/11 08:41:03;;;;;;;12.25;5.78;;;12.70;16.30;;;;;;5058517;28;25051;-75
2022/04/11 08:43:31;;;;;;;10.05;6.20;;;12.20;15.60;;;;;;5056299;28;25072;-74
2022/04/11 08:46:01;;;;;;;9.57;5.50;;;12.10;17.70;;;;;;5049852;28;25168;-72
2022/04/11 08:48:27;;;;;;;10.30;4.75;;;12.40;17.00;;;;;;5068159;28;25112;-73
2022/04/11 08:50:53;;;;;;;8.00;4.03;;;12.80;16.00;;;;;;5069330;28;25136;-73
2022/04/11 08:53:22;;;;;;;4.53;3.92;;;13.60;13.90;;;;;;5051405;28;25184;-72
2022/04/11 08:55:49;;;;;;;6.97;4.78;;;13.80;11.20;;;;;;5072117;28;25077;-74
2022/04/11 08:58:15;;;;;;;8.45;4.63;;;13.90;9.30;;;;;;5063384;28;25072;-71
2022/04/11 09:00:40;;;;;;;8.45;4.97;;;13.70;8.00;;;;;;5060967;28;25069;-72
2022/04/11 09:03:07;;;;;;;5.20;3.92;;;13.90;11.70;;;;;;5073715;28;25114;-70
2022/04/11 09:05:34;;;;;;;8.32;3.72;;;14.10;9.40;;;;;;5074954;28;25087;-73
2022/04/11 09:08:00;;;;;;;5.43;3.40;;;13.80;7.20;;;;;;5092167;28;25042;-73
2022/04/11 09:10:28;;;;;;;7.82;3.40;;;13.90;7.70;;;;;;5096962;28;25074;-73
2022/04/11 09:12:55;;;;;;;6.18;4.30;;;13.80;4.40;;;;;;5097507;28;25074;-73
2022/04/11 09:15:23;;;;;;;6.95;3.75;;;14.10;6.20;;;;;;5095110;28;25415;-73
2022/04/11 09:17:49;;;;;;;9.27;3.22;;;14.00;4.40;;;;;;5091001;28;25072;-75
2022/04/11 09:20:18;;;;;;;7.63;3.17;;;13.60;4.10;;;;;;5091290;28;25072;-72
2022/04/11 09:22:44;;;;;;;8.40;3.47;;;13.70;3.80;;;;;;5091047;28;25085;-73
2022/04/11 09:25:17;;;;;;;7.07;3.40;;;13.70;2.40;;;;;;5091660;28;25058;-73
2022/04/11 09:27:42;;;;;;;;;;;13.80;1.00;;;;;;5074339;28;25169;-73
2022/04/11 09:30:27;;;;;;;8.98;3.92;;;14.10;3.40;;;;;;5091741;28;25086;-75
2022/04/11 09:32:56;;;;;;;7.50;4.38;;;14.40;1.90;;;;;;5082097;28;25058;-72
2022/04/11 09:35:32;;;;;;;10.02;3.90;;;14.30;3.60;;;;;;5075177;28;25074;-73
2022/04/11 09:38:25;;;;;;;7.82;4.38;;;14.10;5.40;;;;;;5080061;28;25117;-73
2022/04/11 09:40:53;;;;;;;4.28;3.13;;;13.90;2.40;;;;;;5052786;28;25081;-73
2022/04/11 09:43:27;;;;;;;5.32;3.47;;;14.10;2.00;;;;;;5074715;28;25136;-74
2022/04/11 09:45:53;;;;;;;9.63;3.03;;;14.10;1.00;;;;;;5056323;28;25072;-75
2022/04/11 09:48:24;;;;;;;4.45;3.05;;;14.20;1.00;;;;;;5077542;28;25145;-72
2022/04/11 09:50:51;;;;;;;5.47;3.28;;;14.00;1.00;;;;;;5076561;28;25082;-73
2022/04/11 09:53:22;;;;;;;7.00;3.40;;;14.20;1.00;;;;;;5076769;28;25129;-72
2022/04/11 09:55:53;;;;;;;7.88;3.60;;;14.00;1.00;;;;;;5079199;28;25063;-74
2022/04/11 09:58:20;;;;;;;8.48;3.95;;;14.00;1.00;;;;;;5085844;28;25068;-73
2022/04/11 10:00:48;;;;;;;6.20;3.50;;;14.20;1.00;;;;;;5087227;28;25082;-73
2022/04/11 10:03:15;;;;;;;7.90;3.40;;;14.10;1.00;;;;;;5084598;28;25105;-73
2022/04/11 10:05:41;;;;;;;9.68;3.88;;;14.20;1.00;;;;;;5074757;28;25041;-72
2022/04/11 10:08:09;;;;;;;6.05;3.72;;;14.20;1.00;;;;;;5094866;28;25092;-72
2022/04/11 10:10:38;;;;;;;6.93;3.88;;;14.20;1.00;;;;;;5091563;28;25167;-71
2022/04/11 10:13:12;;;;;;;5.85;4.13;;;14.30;1.00;;;;;;5054628;28;25098;-73
2022/04/11 10:15:39;;;;;;;9.55;4.03;;;14.30;1.00;;;;;;5053408;28;25072;-72
2022/04/11 10:18:06;;;;;;;7.78;3.75;;;14.30;1.00;;;;;;5073059;28;25047;-73
2022/04/11 10:20:40;;;;;;;8.43;5.18;;;14.70;1.00;;;;;;5098609;28;25111;-73
2022/04/11 10:23:23;;;;;;;7.57;4.15;;;14.40;1.00;;;;;;5089816;28;25074;-73
2022/04/11 10:25:50;;;;;;;11.48;4.05;;;14.10;1.00;;;;;;5090195;28;25098;-74
2022/04/11 10:28:24;;;;;;;7.80;4.07;;;14.60;1.00;;;;;;5101874;28;25093;-73
2022/04/11 10:31:11;;;;;;;8.13;4.35;;;14.70;1.00;;;;;;5097290;28;25056;-74
2022/04/11 10:33:44;;;;;;;11.48;4.68;;;14.60;1.00;;;;;;5088699;28;25054;-74
2022/04/11 10:36:29;;;;;;;8.85;4.60;;;14.90;1.00;;;;;;5080350;28;25060;-75
2022/04/11 10:39:14;;;;;;;10.07;5.00;;;14.80;1.00;;;;;;5095816;28;25066;-74
2022/04/11 10:41:58;;;;;;;9.85;4.35;;;15.00;1.00;;;;;;5095348;28;25097;-75
2022/04/11 10:44:34;;;;;;;8.48;5.00;;;14.90;1.00;;;;;;5080457;28;25053;-75
2022/04/11 10:47:08;;;;;;;10.13;4.60;;;14.40;1.00;;;;;;5081382;28;25125;-73
2022/04/11 10:49:49;;;;;;;8.10;4.05;;;14.30;1.00;;;;;;5085871;28;25056;-70
2022/04/11 10:52:31;;;;;;;11.02;4.70;;;14.80;1.00;;;;;;5073189;28;25080;-72
2022/04/11 10:55:18;;;;;;;5.28;4.30;;;14.90;1.00;;;;;;5074800;28;25065;-77
2022/04/11 10:57:55;;;;;;;10.27;4.07;;;14.80;1.00;;;;;;5075178;28;25070;-72
2022/04/11 11:00:33;;;;;;;5.88;4.00;;;15.00;1.00;;;;;;5072803;28;25060;-75
2022/04/11 11:03:02;;;;;;;6.75;3.85;;;15.20;1.00;;;;;;5068808;28;25050;-72
2022/04/11 11:05:36;;;;;;;7.53;4.47;;;15.10;1.00;;;;;;5069233;28;25054;-74
2022/04/11 11:08:10;;;;;;;9.38;5.00;;;14.80;1.00;;;;;;5087546;28;25064;-71
2022/04/11 11:10:55;;;;;;;11.20;5.07;;;15.00;1.00;;;;;;5091575;28;25054;-70
2022/04/11 11:13:39;;;;;;;4.97;4.00;;;14.90;1.00;;;;;;5089840;28;25068;-71
2022/04/11 11:16:07;;;;;;;7.13;4.10;;;15.10;1.00;;;;;;5084709;28;25053;-73
2022/04/11 11:18:49;;;;;;;9.20;4.43;;;15.20;1.00;;;;;;5089413;28;25142;-72
2022/04/11 11:21:19;;;;;;;7.45;4.70;;;15.40;1.00;;;;;;5089407;28;25057;-72
2022/04/11 11:24:08;;;;;;;8.90;4.60;;;15.50;1.00;;;;;;5077397;28;25084;-73
2022/04/11 11:26:48;;;;;;;8.15;4.85;;;15.80;1.00;;;;;;5084877;28;25056;-73
2022/04/11 11:29:25;;;;;;;8.82;4.78;;;15.90;1.00;;;;;;5063287;28;25061;-73
2022/04/11 11:31:56;;;;;;;4.95;4.22;;;15.40;1.00;;;;;;5082807;28;25063;-73
2022/04/11 11:34:24;;;;;;;8.02;4.80;;;15.60;1.00;;;;;;5086033;28;25099;-74
2022/04/11 11:36:53;;;;;;;7.82;4.80;;;15.30;1.00;;;;;;5076499;28;25088;-74
2022/04/11 11:39:24;;;;;;;9.13;4.90;;;15.60;1.00;;;;;;5077388;28;25103;-73
2022/04/11 11:41:55;;;;;;;8.77;4.63;;;15.70;1.00;;;;;;5065911;28;25167;-73
2022/04/11 11:44:21;;;;;;;8.23;4.30;;;15.80;1.00;;;;;;5075045;28;25110;-73
2022/04/11 11:46:58;;;;;;;7.75;4.40;;;15.90;1.00;;;;;;5067688;28;25165;-74
2022/04/11 11:49:25;;;;;;;9.07;4.40;;;15.80;1.00;;;;;;5066549;28;25063;-76
2022/04/11 11:51:52;;;;;;;6.05;4.35;;;15.70;1.00;;;;;;5067036;28;25147;-75
2022/04/11 11:54:41;;;;;;;8.00;5.15;;;15.70;1.00;;;;;;5064126;28;25109;-73
2022/04/11 11:57:27;;;;;;;7.68;4.38;;;15.30;1.00;;;;;;5033447;28;25057;-71
2022/04/11 12:00:07;;;;;;;7.45;4.07;;;15.70;1.00;;;;;;5047881;28;25060;-75
2022/04/11 12:05:24;;;;;;;10.52;4.93;;;15.50;1.00;;;;;;5068141;28;25053;-73
2022/04/11 12:08:30;;;;;;;6.18;5.07;;;15.80;1.00;;;;;;5049554;28;25074;-72
2022/04/11 12:11:00;;;;;;;7.30;5.45;;;15.90;1.00;;;;;;5058285;28;25063;-74
2022/04/11 12:13:35;;;;;;;7.05;4.90;;;16.00;1.00;;;;;;5049308;28;25059;-73
2022/04/11 12:16:21;;;;;;;11.27;5.38;;;15.80;1.00;;;;;;5061206;28;25065;-73
2022/04/11 12:18:52;;;;;;;9.73;5.65;;;16.40;1.00;;;;;;5058398;28;25059;-73
2022/04/11 12:21:27;;;;;;;10.50;5.18;;;16.20;1.00;;;;;;5049897;28;25054;-74
2022/04/11 12:23:53;;;;;;;10.95;5.45;;;16.20;1.00;;;;;;5038602;28;25071;-74
2022/04/11 12:26:29;;;;;;;7.63;5.10;;;16.20;1.00;;;;;;5078672;28;25076;-76
2022/04/11 12:28:55;;;;;;;6.68;4.93;;;16.20;1.00;;;;;;5068408;28;25061;-74
2022/04/11 12:31:22;;;;;;;10.07;5.72;;;16.00;1.00;;;;;;5088363;28;25062;-73
2022/04/11 12:33:49;;;;;;;6.57;4.70;;;16.10;1.00;;;;;;5070904;28;25052;-72
2022/04/11 12:36:19;;;;;;;7.25;5.15;;;16.40;1.00;;;;;;5052569;28;25133;-73
2022/04/11 12:38:46;;;;;;;7.82;5.18;;;16.70;1.00;;;;;;5050182;28;25095;-74
2022/04/11 12:41:31;;;;;;;6.03;4.72;;;16.90;1.00;;;;;;5057750;28;25145;-72
2022/04/11 12:44:20;;;;;;;10.10;4.97;;;16.30;1.00;;;;;;5058147;28;25048;-73
2022/04/11 12:46:55;;;;;;;9.23;4.88;;;16.40;1.00;;;;;;5065153;28;25081;-76
2022/04/11 12:49:22;;;;;;;10.07;4.72;;;16.40;1.00;;;;;;5065594;28;25080;-74
2022/04/11 12:52:00;;;;;;;9.50;4.88;;;16.30;1.00;;;;;;5074147;28;25091;-72
2022/04/11 12:54:55;;;;;;;10.50;4.80;;;16.50;1.00;;;;;;5056799;28;25099;-73